Time;durP1;ratioP1;P1;durP2;ratioP2;P2;SDS_P1;SDS_P2;PMS_P1;PMS_P2;Temp;Humidity;BMP_temperature;BMP_pressure;BME280_temperature;BME280_humidity;BME280_pressure;Samples;Min_cycle;Max_cycle;Signal;HPM_P1;HPM_P2
2021/10/15 00:01:00;;;;;;;30.83;22.30;;;;;;;10.01;100.00;100633.19;5036878;28;20064;-66
2021/10/15 00:03:26;;;;;;;33.75;22.45;;;;;;;10.02;100.00;100638.41;5037852;28;20064;-66
2021/10/15 00:05:51;;;;;;;34.35;23.13;;;;;;;10.02;100.00;100634.97;5032348;28;20041;-66
2021/10/15 00:08:16;;;;;;;31.65;22.83;;;;;;;9.93;100.00;100604.50;5031937;28;20494;-66
2021/10/15 00:10:42;;;;;;;33.47;23.77;;;;;;;9.98;100.00;100622.72;5031771;28;20190;-67
2021/10/15 00:13:08;;;;;;;32.60;23.13;;;;;;;10.08;100.00;100629.16;5033330;28;20069;-68
2021/10/15 00:15:33;;;;;;;27.27;21.63;;;;;;;9.96;100.00;100614.06;5050196;28;20043;-68
2021/10/15 00:17:58;;;;;;;32.53;23.08;;;;;;;9.74;100.00;100561.59;5049252;28;21939;-68
2021/10/15 00:20:24;;;;;;;33.00;21.65;;;;;;;9.94;100.00;100587.31;5044302;28;20030;-67
2021/10/15 00:22:49;;;;;;;30.08;22.98;;;;;;;10.14;100.00;100619.09;5031865;28;20029;-66
2021/10/15 00:25:15;;;;;;;29.92;20.75;;;;;;;9.82;100.00;100549.91;5031608;28;20030;-70
2021/10/15 00:27:40;;;;;;;26.50;20.48;;;;;;;10.17;100.00;100614.94;5031929;28;20490;-64
2021/10/15 00:30:06;;;;;;;28.48;21.65;;;;;;;10.13;100.00;100599.28;5031693;28;20511;-65
2021/10/15 00:32:31;;;;;;;27.77;20.83;;;;;;;10.18;100.00;100603.81;5031834;28;20029;-69
2021/10/15 00:34:57;;;;;;;27.27;21.45;;;;;;;10.13;100.00;100600.16;5031898;28;20461;-67
2021/10/15 00:37:22;;;;;;;28.20;21.08;;;;;;;10.30;100.00;100606.00;5026491;28;20387;-67
2021/10/15 00:39:48;;;;;;;25.52;20.40;;;;;;;10.28;100.00;100611.91;5048936;28;20025;-70
2021/10/15 00:42:13;;;;;;;27.40;21.02;;;;;;;10.31;100.00;100617.22;5048114;28;20490;-66
2021/10/15 00:44:40;;;;;;;27.92;22.00;;;;;;;10.30;100.00;100600.81;5049667;28;20021;-73
2021/10/15 00:47:05;;;;;;;28.45;20.88;;;;;;;10.36;100.00;100610.56;5049726;28;20056;-67
2021/10/15 00:49:31;;;;;;;25.25;19.60;;;;;;;10.15;100.00;100572.72;5049710;28;20451;-66
2021/10/15 00:51:59;;;;;;;26.40;20.00;;;;;;;10.40;100.00;100624.47;5048765;28;20375;-65
2021/10/15 00:54:24;;;;;;;28.85;22.38;;;;;;;10.41;100.00;100605.59;5050200;28;20029;-69
2021/10/15 00:56:50;;;;;;;28.05;23.55;;;;;;;10.26;100.00;100582.59;5045610;28;20059;-67
2021/10/15 00:59:15;;;;;;;32.00;23.95;;;;;;;10.42;100.00;100597.91;5048549;28;20116;-67
2021/10/15 01:01:41;;;;;;;35.45;24.95;;;;;;;10.45;100.00;100595.44;5048480;28;20100;-68
2021/10/15 01:04:07;;;;;;;34.65;25.13;;;;;;;10.41;100.00;100582.38;5030993;28;20061;-67
2021/10/15 01:06:34;;;;;;;31.58;22.13;;;;;;;10.22;100.00;100526.50;5034964;28;20416;-68
2021/10/15 01:09:00;;;;;;;25.80;18.90;;;;;;;10.64;100.00;100598.72;5031120;28;20029;-68
2021/10/15 01:11:26;;;;;;;21.05;16.25;;;;;;;10.68;100.00;100592.88;5030770;28;20034;-70
2021/10/15 01:13:53;;;;;;;15.65;11.30;;;;;;;10.65;100.00;100592.75;5031025;28;20467;-66
2021/10/15 01:16:24;;;;;;;12.65;8.70;;;;;;;10.45;100.00;100590.25;5031026;28;20033;-67
2021/10/15 01:18:50;;;;;;;11.45;9.10;;;;;;;10.27;100.00;100586.91;5031005;28;20025;-65
2021/10/15 01:21:15;;;;;;;10.70;8.30;;;;;;;10.20;100.00;100590.97;5030899;28;20025;-66
2021/10/15 01:23:41;;;;;;;11.98;7.78;;;;;;;10.06;100.00;100593.00;5030685;28;20033;-65
2021/10/15 01:26:07;;;;;;;10.32;8.70;;;;;;;9.94;100.00;100590.78;5031052;28;20084;-65
2021/10/15 01:28:33;;;;;;;9.20;8.13;;;;;;;10.02;100.00;100591.13;5031056;28;20025;-66
2021/10/15 01:31:00;;;;;;;7.90;7.10;;;;;;;9.92;100.00;100588.94;5032914;28;20040;-68
2021/10/15 01:33:26;;;;;;;9.55;7.93;;;;;;;9.90;100.00;100593.19;5026037;28;20043;-68
2021/10/15 01:35:52;;;;;;;9.07;8.18;;;;;;;9.97;100.00;100597.75;5024797;28;20037;-65
2021/10/15 01:38:18;;;;;;;8.80;7.90;;;;;;;10.02;100.00;100586.81;5026647;28;20037;-67
2021/10/15 01:40:44;;;;;;;9.05;7.10;;;;;;;10.17;100.00;100590.84;5027095;28;20029;-67
2021/10/15 01:43:11;;;;;;;7.57;6.68;;;;;;;10.22;100.00;100585.84;5026999;28;20115;-69
2021/10/15 01:45:37;;;;;;;8.15;6.82;;;;;;;10.31;100.00;100575.91;5025291;28;20037;-68
2021/10/15 01:48:02;;;;;;;8.27;6.72;;;;;;;10.39;100.00;100582.28;5023214;28;20133;-67
2021/10/15 01:50:29;;;;;;;7.38;6.43;;;;;;;10.40;100.00;100578.03;5026356;28;20045;-68
2021/10/15 01:52:55;;;;;;;6.78;5.88;;;;;;;10.32;100.00;100586.28;5027508;28;20134;-67
2021/10/15 01:55:22;;;;;;;6.18;5.47;;;;;;;10.25;100.00;100588.59;5022639;28;20472;-65
2021/10/15 01:57:48;;;;;;;7.38;6.13;;;;;;;10.10;100.00;100574.22;5023854;28;20076;-72
2021/10/15 02:00:15;;;;;;;6.63;5.65;;;;;;;10.03;100.00;100590.28;5026876;28;20077;-71
2021/10/15 02:02:41;;;;;;;6.72;6.03;;;;;;;9.85;100.00;100599.00;5024849;28;20032;-68
2021/10/15 02:05:10;;;;;;;8.35;6.82;;;;;;;9.33;100.00;100522.06;5047156;28;20552;-70
2021/10/15 02:07:36;;;;;;;7.20;5.97;;;;;;;9.80;100.00;100604.81;5050665;28;20056;-69
2021/10/15 02:10:03;;;;;;;7.82;7.03;;;;;;;9.77;100.00;100600.41;5051781;28;20486;-68
2021/10/15 02:12:29;;;;;;;8.27;7.22;;;;;;;9.84;100.00;100605.00;5050752;28;20029;-66
2021/10/15 02:14:54;;;;;;;6.30;5.70;;;;;;;9.77;100.00;100597.81;5052583;28;20025;-67
2021/10/15 02:17:20;;;;;;;6.55;5.68;;;;;;;9.77;100.00;100605.56;5051892;28;20033;-69
2021/10/15 02:19:45;;;;;;;5.95;5.32;;;;;;;9.82;100.00;100600.56;5052881;28;20057;-67
2021/10/15 02:22:10;;;;;;;6.15;5.18;;;;;;;9.35;100.00;100511.00;5049630;28;20021;-69
2021/10/15 02:24:37;;;;;;;7.05;5.30;;;;;;;9.90;100.00;100613.81;5049889;28;20025;-70
2021/10/15 02:27:02;;;;;;;7.07;5.38;;;;;;;9.90;100.00;100619.84;5044455;28;20053;-66
2021/10/15 02:29:28;;;;;;;5.90;4.85;;;;;;;9.29;100.00;100525.31;5051445;28;20028;-67
2021/10/15 02:31:54;;;;;;;6.43;4.90;;;;;;;9.88;100.00;100624.03;5034889;28;20117;-65
2021/10/15 02:34:19;;;;;;;5.68;4.82;;;;;;;9.86;100.00;100607.63;5049847;28;20438;-71
2021/10/15 02:36:45;;;;;;;5.78;4.97;;;;;;;9.68;100.00;100600.00;5050790;28;20021;-65
2021/10/15 02:39:10;;;;;;;6.32;5.53;;;;;;;9.81;100.00;100604.00;5049752;28;20021;-71
2021/10/15 02:41:39;;;;;;;7.45;5.40;;;;;;;9.89;100.00;100597.44;5050843;28;20029;-66
2021/10/15 02:44:09;;;;;;;5.82;4.57;;;;;;;10.01;100.00;100597.94;5051790;28;20047;-67
2021/10/15 02:46:34;;;;;;;;;;;;;;;10.09;100.00;100600.84;5051737;28;20039;-64
2021/10/15 02:49:00;;;;;;;6.57;5.72;;;;;;;10.17;100.00;100589.16;5048175;28;20315;-66
2021/10/15 02:51:26;;;;;;;6.78;6.07;;;;;;;10.18;100.00;100595.16;5050849;28;20024;-68
2021/10/15 02:53:51;;;;;;;5.70;4.85;;;;;;;9.76;100.00;100571.94;5049372;28;20025;-68
2021/10/15 02:56:18;;;;;;;6.70;6.00;;;;;;;9.96;100.00;100596.88;5051317;28;20027;-70
2021/10/15 02:58:43;;;;;;;5.93;5.32;;;;;;;10.07;100.00;100602.50;5050795;28;20017;-65
2021/10/15 03:01:09;;;;;;;6.68;5.97;;;;;;;10.14;100.00;100593.28;5050437;28;20075;-64
2021/10/15 03:03:35;;;;;;;6.20;5.60;;;;;;;10.19;100.00;100597.84;5032386;28;20017;-70
2021/10/15 03:06:00;;;;;;;5.45;4.95;;;;;;;10.02;100.00;100567.91;5052094;28;20074;-66
2021/10/15 03:08:26;;;;;;;6.88;6.00;;;;;;;10.17;100.00;100583.97;5052001;28;20471;-66
2021/10/15 03:10:51;;;;;;;7.85;6.47;;;;;;;10.26;100.00;100586.06;5046842;28;20024;-65
2021/10/15 03:13:17;;;;;;;7.35;6.40;;;;;;;10.25;100.00;100573.09;5050033;28;20439;-67
2021/10/15 03:15:43;;;;;;;6.85;6.15;;;;;;;10.25;100.00;100568.81;5047642;28;20025;-68
2021/10/15 03:18:09;;;;;;;6.25;5.65;;;;;;;10.41;100.00;100593.56;5050991;28;20021;-69
2021/10/15 03:20:35;;;;;;;6.47;5.78;;;;;;;10.44;100.00;100587.63;5050331;28;20467;-65
2021/10/15 03:23:04;;;;;;;7.47;6.00;;;;;;;10.20;100.00;100560.91;5032974;28;20033;-66
2021/10/15 03:25:30;;;;;;;8.30;5.90;;;;;;;10.33;100.00;100592.31;5051230;28;20079;-66
2021/10/15 03:27:56;;;;;;;6.65;5.78;;;;;;;9.87;100.00;100519.16;5047491;28;20032;-66
2021/10/15 03:30:21;;;;;;;6.65;5.75;;;;;;;10.17;100.00;100567.63;5049440;28;20028;-67
2021/10/15 03:32:47;;;;;;;9.13;7.50;;;;;;;10.23;100.00;100578.19;5033892;28;20108;-69
2021/10/15 03:35:12;;;;;;;8.40;7.30;;;;;;;9.95;100.00;100581.34;5052604;28;20391;-67
2021/10/15 03:37:38;;;;;;;8.50;7.70;;;;;;;9.54;100.00;100563.31;5053318;28;20051;-65
2021/10/15 03:40:04;;;;;;;9.00;6.97;;;;;;;9.62;100.00;100576.53;5052843;28;20483;-67
2021/10/15 03:42:30;;;;;;;7.03;6.22;;;;;;;9.60;100.00;100588.50;5052855;28;20063;-68
2021/10/15 03:44:55;;;;;;;7.30;6.60;;;;;;;9.55;100.00;100570.25;5052686;28;20494;-66
2021/10/15 03:47:21;;;;;;;7.18;6.47;;;;;;;9.66;100.00;100562.97;5051338;28;20104;-70
2021/10/15 03:49:47;;;;;;;7.50;6.13;;;;;;;9.69;100.00;100558.84;5037809;28;20072;-67
2021/10/15 03:52:12;;;;;;;6.60;5.90;;;;;;;9.71;100.00;100546.88;5032911;28;20460;-67
2021/10/15 03:54:38;;;;;;;6.97;6.28;;;;;;;9.75;100.00;100568.50;5048173;28;20033;-69
2021/10/15 03:57:03;;;;;;;8.63;7.40;;;;;;;9.67;100.00;100569.88;5052673;28;20036;-66
2021/10/15 03:59:29;;;;;;;7.80;7.00;;;;;;;9.66;100.00;100560.41;5052852;28;20067;-67
2021/10/15 04:01:54;;;;;;;8.35;7.55;;;;;;;9.67;100.00;100550.16;5052346;28;20025;-67
2021/10/15 04:04:20;;;;;;;8.25;7.45;;;;;;;9.78;100.00;100563.50;5052838;28;20033;-67
2021/10/15 04:06:46;;;;;;;8.40;7.53;;;;;;;9.82;100.00;100565.38;5052516;28;20056;-66
2021/10/15 04:09:11;;;;;;;8.98;7.75;;;;;;;9.72;100.00;100542.63;5052614;28;20145;-66
2021/10/15 04:11:37;;;;;;;8.38;7.45;;;;;;;9.64;100.00;100534.53;5052256;28;20489;-67
2021/10/15 04:14:02;;;;;;;7.65;6.20;;;;;;;9.82;100.00;100561.91;5052344;28;20028;-66
2021/10/15 04:16:28;;;;;;;7.40;6.20;;;;;;;9.79;100.00;100562.66;5052103;28;20112;-66
2021/10/15 04:18:54;;;;;;;7.13;6.20;;;;;;;9.77;100.00;100553.09;5052268;28;20106;-66
2021/10/15 04:21:19;;;;;;;7.70;6.90;;;;;;;9.87;100.00;100571.59;5052172;28;20061;-67
2021/10/15 04:23:45;;;;;;;6.97;6.28;;;;;;;9.90;100.00;100564.81;5052413;28;20403;-67
2021/10/15 04:26:10;;;;;;;7.80;6.30;;;;;;;9.90;100.00;100550.22;5052104;28;20171;-66
2021/10/15 04:28:36;;;;;;;6.97;5.78;;;;;;;9.90;100.00;100564.81;5052043;28;20472;-67
2021/10/15 04:31:01;;;;;;;7.50;6.80;;;;;;;9.82;100.00;100565.38;5052043;28;20123;-66
2021/10/15 04:33:27;;;;;;;7.68;6.88;;;;;;;9.81;100.00;100567.91;5052132;28;20388;-67
2021/10/15 04:35:53;;;;;;;8.30;7.40;;;;;;;9.79;100.00;100562.66;5052236;28;20060;-66
2021/10/15 04:38:18;;;;;;;8.48;7.57;;;;;;;9.77;100.00;100564.31;5052086;28;20120;-66
2021/10/15 04:40:44;;;;;;;10.38;7.60;;;;;;;9.27;100.00;100483.16;5052312;28;20033;-66
2021/10/15 04:43:09;;;;;;;9.63;7.72;;;;;;;9.68;100.00;100566.47;5051642;28;20485;-67
2021/10/15 04:45:35;;;;;;;9.25;7.65;;;;;;;9.52;100.00;100571.00;5051538;28;20029;-65
2021/10/15 04:48:00;;;;;;;9.43;7.72;;;;;;;9.09;100.00;100506.44;5051887;28;20029;-67
2021/10/15 04:50:26;;;;;;;8.40;7.05;;;;;;;9.50;100.00;100579.47;5051942;28;20033;-68
2021/10/15 04:52:51;;;;;;;7.88;6.72;;;;;;;9.43;100.00;100564.56;5051854;28;20036;-67
2021/10/15 04:55:17;;;;;;;8.40;7.18;;;;;;;8.48;100.00;100412.84;5051741;28;20029;-66
2021/10/15 04:57:42;;;;;;;8.55;7.53;;;;;;;9.31;100.00;100540.03;5051657;28;20032;-67
2021/10/15 05:00:08;;;;;;;8.85;6.90;;;;;;;9.55;100.00;100565.97;5051096;28;20040;-67
2021/10/15 05:02:39;;;;;;;9.48;7.35;;;;;;;9.62;100.00;100567.13;5030990;28;20541;-67
2021/10/15 05:05:07;;;;;;;9.15;7.75;;;;;;;9.51;100.00;100556.34;5030874;28;20037;-67
2021/10/15 05:07:32;;;;;;;10.20;8.00;;;;;;;9.60;100.00;100565.28;5045159;28;20565;-68
2021/10/15 05:09:58;;;;;;;10.35;8.38;;;;;;;9.61;100.00;100549.00;5051056;28;20028;-66
2021/10/15 05:12:23;;;;;;;9.02;7.82;;;;;;;9.70;100.00;100576.03;5051183;28;20060;-68
2021/10/15 05:14:49;;;;;;;10.05;8.88;;;;;;;9.61;100.00;100556.72;5015742;28;20060;-68
2021/10/15 05:17:14;;;;;;;15.88;11.15;;;;;;;9.32;100.00;100504.84;5044953;28;20472;-66
2021/10/15 05:19:40;;;;;;;40.63;17.30;;;;;;;9.80;100.00;100561.84;5031233;28;20108;-68
2021/10/15 05:22:06;;;;;;;48.75;20.70;;;;;;;9.96;100.00;100519.50;5031126;28;20025;-68
2021/10/15 05:24:32;;;;;;;59.53;24.90;;;;;;;10.40;100.00;100557.38;5031426;28;20052;-68
2021/10/15 05:26:58;;;;;;;57.45;25.95;;;;;;;10.67;100.00;100547.22;5031084;28;20132;-66
2021/10/15 05:29:23;;;;;;;74.45;32.45;;;;;;;10.82;100.00;100545.22;5031232;28;20120;-69
2021/10/15 05:31:49;;;;;;;56.17;27.20;;;;;;;10.93;100.00;100553.34;5042656;28;20112;-68
2021/10/15 05:34:14;;;;;;;58.72;28.17;;;;;;;10.18;100.00;100412.91;5033074;28;20079;-67
2021/10/15 05:36:40;;;;;;;53.65;22.90;;;;;;;10.60;100.00;100460.91;5039093;28;20118;-70
2021/10/15 05:39:06;;;;;;;64.20;23.85;;;;;;;11.06;100.00;100534.00;5046109;28;20024;-67
2021/10/15 05:41:31;;;;;;;40.17;19.60;;;;;;;11.25;100.00;100556.25;5049273;28;20029;-67
2021/10/15 05:43:57;;;;;;;49.25;21.45;;;;;;;11.27;100.00;100558.88;5043517;28;20029;-68
2021/10/15 05:46:22;;;;;;;55.22;22.63;;;;;;;11.32;100.00;100546.97;5041762;28;20079;-68
2021/10/15 05:48:48;;;;;;;50.25;21.75;;;;;;;11.36;100.00;100554.00;5054590;28;20033;-67
2021/10/15 05:51:14;;;;;;;50.92;21.23;;;;;;;11.28;100.00;100529.63;5054630;28;20055;-68
2021/10/15 05:53:40;;;;;;;53.53;20.35;;;;;;;11.43;100.00;100540.47;5043932;28;20025;-69
2021/10/15 05:58:53;;;;;;;43.88;20.55;;;;;;;11.53;100.00;100540.81;5033972;28;20075;-67
2021/10/15 06:01:22;;;;;;;42.35;20.20;;;;;;;11.54;100.00;100532.19;5048125;28;20503;-68
2021/10/15 06:03:59;;;;;;;47.88;22.77;;;;;;;11.58;100.00;100541.84;5052067;28;20020;-67
2021/10/15 06:14:20;;;;;;;47.25;20.17;;;;;;;11.62;100.00;100570.41;5052129;28;20091;-70
2021/10/15 06:16:50;;;;;;;51.97;19.65;;;;;;;11.20;100.00;100492.28;5052319;28;20533;-65
2021/10/15 06:19:20;;;;;;;38.40;16.65;;;;;;;11.57;100.00;100546.13;5053253;28;20027;-68
2021/10/15 06:21:45;;;;;;;45.50;17.92;;;;;;;11.74;100.00;100569.97;5049423;28;20068;-66
2021/10/15 06:24:11;;;;;;;42.60;17.80;;;;;;;11.76;100.00;100559.66;5052821;28;20071;-66
2021/10/15 06:26:36;;;;;;;45.55;19.63;;;;;;;11.73;100.00;100559.59;5049487;28;20410;-70
2021/10/15 06:29:02;;;;;;;50.30;20.15;;;;;;;11.74;100.00;100554.44;5050419;28;20063;-66
2021/10/15 06:31:29;;;;;;;34.60;16.27;;;;;;;11.43;100.00;100504.28;5051549;28;20526;-68
2021/10/15 06:33:55;;;;;;;35.53;16.13;;;;;;;11.72;100.00;100569.03;5031838;28;20435;-70
2021/10/15 06:36:21;;;;;;;48.78;18.63;;;;;;;11.83;100.00;100579.75;5052679;28;20025;-65
2021/10/15 06:38:46;;;;;;;43.72;16.13;;;;;;;11.82;100.00;100568.53;5052276;28;20013;-69
2021/10/15 06:41:12;;;;;;;31.92;12.77;;;;;;;11.48;100.00;100525.13;5050882;28;20459;-68
2021/10/15 06:43:37;;;;;;;31.05;14.50;;;;;;;11.88;100.00;100580.78;5049075;28;20505;-69
2021/10/15 06:46:03;;;;;;;37.90;14.98;;;;;;;11.43;100.00;100504.28;5051415;28;20075;-68
2021/10/15 06:48:29;;;;;;;31.55;15.10;;;;;;;11.86;100.00;100577.25;5051875;28;20029;-69
2021/10/15 06:50:54;;;;;;;50.13;17.38;;;;;;;11.49;100.00;100506.22;5051670;28;20075;-69
2021/10/15 06:53:20;;;;;;;40.15;18.42;;;;;;;11.53;100.00;100491.69;5048246;28;20495;-67
2021/10/15 06:55:47;;;;;;;48.55;17.75;;;;;;;11.65;100.00;100536.94;5050749;28;20458;-68
2021/10/15 06:58:13;;;;;;;45.47;17.60;;;;;;;11.72;100.00;100538.00;5049332;28;20113;-66
2021/10/15 07:00:38;;;;;;;57.67;23.83;;;;;;;11.58;100.00;100503.06;5051658;28;20029;-65
2021/10/15 07:03:15;;;;;;;53.97;19.92;;;;;;;11.54;100.00;100496.00;5050389;28;20021;-67
2021/10/15 07:05:40;;;;;;;38.50;17.17;;;;;;;11.87;100.00;100552.28;5051860;28;20375;-70
2021/10/15 07:08:06;;;;;;;36.28;16.08;;;;;;;11.88;100.00;100554.03;5051768;28;20055;-71
2021/10/15 07:10:31;;;;;;;39.28;16.65;;;;;;;11.44;100.00;100474.13;5048344;28;20360;-67
2021/10/15 07:12:57;;;;;;;43.05;15.70;;;;;;;11.89;100.00;100543.72;5050470;28;20051;-66
2021/10/15 07:15:22;;;;;;;37.17;15.55;;;;;;;11.90;100.00;100553.25;5048982;28;20417;-67
2021/10/15 07:17:48;;;;;;;26.83;13.40;;;;;;;11.43;100.00;100478.44;5050503;28;20029;-66
2021/10/15 07:20:13;;;;;;;30.45;14.80;;;;;;;11.81;100.00;100537.41;5053410;28;20032;-67
2021/10/15 07:22:39;;;;;;;28.30;14.00;;;;;;;11.93;100.00;100560.25;5047867;28;20033;-67
2021/10/15 07:25:06;;;;;;;29.80;13.48;;;;;;;11.54;100.00;100494.31;5050828;28;20407;-67
2021/10/15 07:27:31;;;;;;;28.67;14.02;;;;;;;11.93;100.00;100557.66;5047762;28;20037;-68
2021/10/15 07:29:57;;;;;;;53.35;20.75;;;;;;;11.82;100.00;100534.91;5025216;28;20021;-67
2021/10/15 07:32:22;;;;;;;33.40;18.27;;;;;;;11.98;100.00;100556.13;5042103;28;20109;-69
2021/10/15 07:34:48;;;;;;;33.17;17.50;;;;;;;11.63;100.00;100488.56;5042623;28;20525;-68
2021/10/15 07:37:13;;;;;;;20.33;12.68;;;;;;;12.02;100.00;100562.28;5043736;28;20068;-69
2021/10/15 07:39:39;;;;;;;38.53;14.27;;;;;;;11.88;100.00;100534.22;5006129;28;20036;-67
2021/10/15 07:42:05;;;;;;;42.85;17.55;;;;;;;11.93;100.00;100550.75;5042269;28;20479;-68
2021/10/15 07:44:31;;;;;;;44.78;16.30;;;;;;;12.09;100.00;100572.88;5042138;28;20025;-67
2021/10/15 07:46:58;;;;;;;47.83;18.45;;;;;;;12.17;100.00;100569.66;5043080;28;20415;-68
2021/10/15 07:49:24;;;;;;;44.33;16.13;;;;;;;12.18;100.00;100550.72;5042197;28;20498;-66
2021/10/15 07:51:50;;;;;;;42.67;15.63;;;;;;;12.24;100.00;100556.09;5040514;28;20029;-66
2021/10/15 07:54:15;;;;;;;28.52;14.45;;;;;;;12.26;100.00;100546.63;5041027;28;20469;-66
2021/10/15 07:56:41;;;;;;;36.45;16.20;;;;;;;11.92;100.00;100478.28;5042878;28;20033;-67
2021/10/15 07:59:06;;;;;;;33.15;14.63;;;;;;;12.44;100.00;100577.41;5041066;28;20028;-68
2021/10/15 08:01:32;;;;;;;31.00;14.20;;;;;;;12.44;100.00;100567.06;5042380;28;20482;-67
2021/10/15 08:03:59;;;;;;;24.88;12.63;;;;;;;12.46;100.00;100553.31;5052458;28;20032;-68
2021/10/15 08:06:25;;;;;;;25.35;11.88;;;;;;;12.45;100.00;100556.75;5052478;28;20496;-67
2021/10/15 08:08:51;;;;;;;32.55;13.02;;;;;;;12.46;100.00;100550.75;5052305;28;20037;-67
2021/10/15 08:11:18;;;;;;;31.27;14.00;;;;;;;12.46;100.00;100561.09;5052490;28;20387;-67
2021/10/15 08:13:44;;;;;;;47.70;16.05;;;;;;;12.52;100.00;100556.94;5052341;28;20059;-68
2021/10/15 08:16:09;;;;;;;30.67;12.82;;;;;;;12.51;100.00;100548.28;5048913;28;20037;-67
2021/10/15 08:18:35;;;;;;;25.00;11.90;;;;;;;12.49;100.00;100544.78;5042013;28;20053;-68
2021/10/15 08:21:00;;;;;;;48.33;14.85;;;;;;;12.42;100.00;100528.19;5044931;28;20017;-67
2021/10/15 08:23:28;;;;;;;36.45;14.57;;;;;;;12.53;100.00;100543.16;5032127;28;20116;-66
2021/10/15 08:25:55;;;;;;;34.03;15.38;;;;;;;12.57;100.00;100532.94;5044212;28;20045;-67
2021/10/15 08:28:21;;;;;;;23.50;11.68;;;;;;;12.29;100.00;100484.63;5040420;28;20056;-68
2021/10/15 08:30:47;;;;;;;35.58;15.00;;;;;;;12.61;100.00;100541.66;5006810;28;20075;-65
2021/10/15 08:33:12;;;;;;;32.45;12.73;;;;;;;12.64;100.00;100543.50;5042146;28;20029;-66
2021/10/15 08:35:38;;;;;;;48.05;15.75;;;;;;;12.62;100.00;100546.00;5040698;28;20037;-65
2021/10/15 08:38:03;;;;;;;24.35;11.65;;;;;;;12.67;100.00;100547.03;5040719;28;20021;-66
2021/10/15 08:40:30;;;;;;;25.05;12.02;;;;;;;12.50;100.00;100525.81;5042058;28;20045;-68
2021/10/15 08:42:56;;;;;;;31.55;11.90;;;;;;;12.69;100.00;100558.31;5045512;28;20036;-68
2021/10/15 08:45:32;;;;;;;22.80;12.10;;;;;;;12.71;100.00;100559.25;5040565;28;20083;-66
2021/10/15 08:47:59;;;;;;;21.58;10.50;;;;;;;12.63;100.00;100542.59;5039537;28;20029;-66
2021/10/15 08:50:25;;;;;;;28.35;12.02;;;;;;;12.75;100.00;100544.69;5042335;28;20419;-67
2021/10/15 08:52:51;;;;;;;26.33;12.38;;;;;;;12.38;100.00;100484.88;5040299;28;20025;-67
2021/10/15 08:55:17;;;;;;;34.90;14.85;;;;;;;12.76;100.00;100552.50;5040962;28;20029;-68
2021/10/15 08:57:57;;;;;;;33.88;14.65;;;;;;;12.65;100.00;100542.63;5041658;28;20030;-67
2021/10/15 09:00:33;;;;;;;38.50;13.70;;;;;;;12.83;100.00;100574.25;5041807;28;20186;-65
2021/10/15 09:03:18;;;;;;;30.65;12.98;;;;;;;12.86;100.00;100561.41;5041585;28;20029;-67
2021/10/15 09:06:00;;;;;;;32.10;12.38;;;;;;;12.93;100.00;100567.63;5041924;28;20513;-67
2021/10/15 09:08:42;;;;;;;47.17;17.60;;;;;;;12.94;100.00;100569.41;5041972;28;20025;-67
2021/10/15 09:11:36;;;;;;;32.50;13.80;;;;;;;12.91;100.00;100564.13;5043376;28;20128;-69
2021/10/15 09:14:16;;;;;;;60.60;19.40;;;;;;;12.95;100.00;100555.63;5040079;28;20426;-66
2021/10/15 09:17:02;;;;;;;43.47;18.33;;;;;;;12.95;100.00;100558.22;5006622;28;20030;-66
2021/10/15 09:19:42;;;;;;;43.08;17.17;;;;;;;12.90;100.00;100555.47;5040728;28;20109;-67
2021/10/15 09:22:13;;;;;;;42.97;15.30;;;;;;;12.20;100.00;100422.22;5050182;28;20025;-68
2021/10/15 09:24:59;;;;;;;31.10;14.48;;;;;;;12.52;100.00;100469.75;5051212;28;20053;-67
2021/10/15 09:27:27;;;;;;;27.55;16.58;;;;;;;12.98;100.00;100544.47;5050931;28;20427;-68
2021/10/15 09:29:56;;;;;;;41.10;21.23;;;;;;;12.98;100.00;100540.13;5051305;28;20029;-68
2021/10/15 09:32:26;;;;;;;34.60;19.58;;;;;;;12.98;100.00;100531.50;5048763;28;20509;-70
2021/10/15 09:34:53;;;;;;;21.45;13.40;;;;;;;13.00;100.00;100533.28;5028758;28;20072;-67
2021/10/15 09:37:30;;;;;;;23.25;13.18;;;;;;;12.63;100.00;100470.06;5031252;28;20033;-68
2021/10/15 09:40:10;;;;;;;22.45;13.80;;;;;;;12.97;100.00;100540.09;5031278;28;20109;-68
2021/10/15 09:42:38;;;;;;;33.08;16.50;;;;;;;12.97;100.00;100528.00;5031201;28;20092;-68
2021/10/15 09:45:15;;;;;;;24.13;14.40;;;;;;;12.92;100.00;100509.75;5031046;28;20032;-67
2021/10/15 09:47:45;;;;;;;40.60;21.40;;;;;;;13.02;100.00;100518.69;5031103;28;20037;-68
2021/10/15 09:50:13;;;;;;;36.35;20.38;;;;;;;13.11;100.00;100516.31;5037228;28;20056;-66
2021/10/15 09:52:58;;;;;;;34.83;18.20;;;;;;;13.09;100.00;100517.97;5040487;28;20022;-66
2021/10/15 09:55:31;;;;;;;33.22;18.50;;;;;;;13.15;100.00;100517.28;5037239;28;20765;-68
2021/10/15 09:58:18;;;;;;;26.80;13.93;;;;;;;13.13;100.00;100525.88;5039923;28;20026;-68
2021/10/15 10:00:48;;;;;;;35.63;16.65;;;;;;;13.18;100.00;100537.22;5041105;28;20056;-67
2021/10/15 10:03:37;;;;;;;40.25;16.92;;;;;;;12.76;100.00;100467.00;5019501;28;20436;-66
2021/10/15 10:06:03;;;;;;;32.88;17.70;;;;;;;13.19;100.00;100523.44;5018597;28;20034;-67
2021/10/15 10:08:28;;;;;;;55.40;19.73;;;;;;;13.26;100.00;100534.00;5018431;28;20042;-65
2021/10/15 10:10:54;;;;;;;52.17;19.77;;;;;;;13.37;100.00;100542.13;5019023;28;20030;-68
2021/10/15 10:13:19;;;;;;;65.82;26.67;;;;;;;13.33;100.00;100535.03;5016994;28;20424;-69
2021/10/15 10:15:45;;;;;;;46.08;20.75;;;;;;;13.30;100.00;100518.56;5019401;28;20075;-70
2021/10/15 10:20:46;;;;;;;54.60;19.95;;;;;;;13.49;100.00;100545.88;5028607;28;20033;-66
2021/10/15 10:23:32;;;;;;;52.55;19.45;;;;;;;13.51;100.00;100536.44;5028252;28;20042;-68
2021/10/15 10:25:59;;;;;;;59.00;21.15;;;;;;;13.53;100.00;100537.31;5032080;28;20054;-68
2021/10/15 10:28:26;;;;;;;48.13;20.50;;;;;;;13.15;100.00;100462.00;5015433;28;20033;-68
2021/10/15 10:30:59;;;;;;;37.90;19.92;;;;;;;13.50;100.00;100532.94;5031801;28;20033;-68
2021/10/15 10:33:25;;;;;;;43.45;26.17;;;;;;;13.60;100.00;100557.41;5032646;28;20026;-69
2021/10/15 10:35:52;;;;;;;48.97;27.45;;;;;;;13.32;100.00;100472.78;5054223;28;20087;-67
2021/10/15 10:38:20;;;;;;;42.42;23.55;;;;;;;13.67;100.00;100540.25;5054377;28;20100;-68
2021/10/15 10:41:01;;;;;;;41.05;21.52;;;;;;;13.63;100.00;100541.03;5053892;28;20032;-68
2021/10/15 10:43:32;;;;;;;46.85;25.70;;;;;;;13.66;100.00;100544.59;5053952;28;20024;-68
2021/10/15 10:46:17;;;;;;;42.35;25.63;;;;;;;13.63;100.00;100536.72;5054019;28;20025;-67
2021/10/15 10:48:49;;;;;;;57.22;24.77;;;;;;;13.63;100.00;100531.53;5054052;28;20025;-68
2021/10/15 10:51:25;;;;;;;39.13;21.80;;;;;;;13.67;100.00;100533.38;5053754;28;20112;-68
2021/10/15 10:54:09;;;;;;;47.00;23.00;;;;;;;13.68;100.00;100514.38;5053450;28;20025;-69
2021/10/15 10:56:42;;;;;;;49.33;27.35;;;;;;;13.51;100.00;100479.38;5053369;28;20036;-68
2021/10/15 10:59:17;;;;;;;39.22;25.00;;;;;;;13.56;100.00;100499.38;5035878;28;20467;-69
2021/10/15 11:02:03;;;;;;;35.08;21.60;;;;;;;13.56;100.00;100495.91;5053802;28;20461;-68
2021/10/15 11:04:31;;;;;;;24.73;17.52;;;;;;;13.51;100.00;100513.09;5053647;28;20108;-67
2021/10/15 11:07:00;;;;;;;35.63;18.30;;;;;;;13.51;100.00;100506.16;5048753;28;20044;-66
2021/10/15 11:09:44;;;;;;;40.53;20.80;;;;;;;13.47;100.00;100508.63;5033631;28;20084;-67
2021/10/15 11:12:12;;;;;;;45.92;22.20;;;;;;;13.49;100.00;100501.78;5015810;28;20443;-66
2021/10/15 11:14:51;;;;;;;50.88;22.88;;;;;;;13.57;100.00;100497.63;5033709;28;20446;-67
2021/10/15 11:17:17;;;;;;;40.72;21.67;;;;;;;13.59;100.00;100494.28;5033433;28;20061;-67
2021/10/15 11:19:43;;;;;;;35.30;18.52;;;;;;;13.68;100.00;100492.72;5033434;28;20025;-68
2021/10/15 11:22:09;;;;;;;43.92;21.42;;;;;;;13.71;100.00;100479.84;5033970;28;20091;-68
2021/10/15 11:24:35;;;;;;;47.00;21.85;;;;;;;13.67;100.00;100470.22;5042856;28;21128;-67